Uzice, Serbia
Current Conditions -  °F | °C
As of 12:30 PM on Tuesday 21 Oct 2014 (Local Time) from LYUZ Reporting Station
Few Clouds Few Clouds  
Wind Chill: 16°   Ceiling: Unl
Heat Index: 16°   Visibility: 6mi
Dew Point:   Wind: 8mph
Humidity: 63%   Direction: 300°WNW
Pressure: 29.97"   Gusts: NA
Location:  43.85°N, 19.85°E
Report Text: LYUZ 211030Z 30007KT 240V330 9999 FEW020 16/09 Q1015
Loading
Personal Weather Stations






























Interactive Weather Map
Tropical Storm Tracking
New forecast layout! Learn more

10-Day Weather Forecast

Advertisements
Track Severe Weather on mobile